Time;durP1;ratioP1;P1;durP2;ratioP2;P2;SDS_P1;SDS_P2;PMS_P1;PMS_P2;Temp;Humidity;BMP_temperature;BMP_pressure;BME280_temperature;BME280_humidity;BME280_pressure;Samples;Min_cycle;Max_cycle;Signal;HPM_P1;HPM_P2
2022/07/03 00:02:25;;;;;;;;;0.00;0.00;;;;;21.22;39.94;101656.09;5062268;28;45493;-56
2022/07/03 00:04:50;;;;;;;;;1.00;1.00;;;;;21.19;39.92;101650.97;5058402;28;45612;-57
2022/07/03 00:07:15;;;;;;;;;0.33;0.33;;;;;21.15;40.31;101655.75;5056313;28;64401;-57
2022/07/03 00:09:41;;;;;;;;;1.00;1.00;;;;;21.15;39.95;101657.59;5058444;28;61049;-57
2022/07/03 00:12:06;;;;;;;;;2.00;1.00;;;;;21.17;39.80;101650.22;5054652;28;61712;-57
2022/07/03 00:14:32;;;;;;;;;2.33;1.00;;;;;21.19;40.06;101648.25;5050916;28;45401;-56
2022/07/03 00:16:58;;;;;;;;;1.33;1.00;;;;;21.19;39.85;101650.13;5052566;28;45457;-57
2022/07/03 00:19:23;;;;;;;;;0.67;0.67;;;;;21.20;40.04;101644.56;5055732;28;72975;-57
2022/07/03 00:22:05;;;;;;;;;0.67;0.67;;;;;21.21;39.79;101648.13;5059403;28;45443;-57
2022/07/03 00:24:47;;;;;;;;;0.00;0.00;;;;;21.22;40.26;101644.44;5051853;28;45679;-57
2022/07/03 00:27:14;;;;;;;;;0.00;0.00;;;;;21.24;39.68;101637.06;5049029;28;45988;-57
2022/07/03 00:29:44;;;;;;;;;1.00;1.00;;;;;21.24;39.81;101645.19;5048512;28;45781;-57
2022/07/03 00:32:11;;;;;;;;;1.00;1.00;;;;;21.24;40.08;101645.19;5052556;28;45489;-57
2022/07/03 00:34:38;;;;;;;;;3.00;1.00;;;;;21.22;40.39;101653.41;5049173;28;45688;-57
2022/07/03 00:37:06;;;;;;;;;1.00;1.00;;;;;21.22;40.50;101648.00;5043659;28;45647;-57
2022/07/03 00:39:32;;;;;;;;;1.67;0.33;;;;;21.18;40.25;101648.38;5053420;28;46063;-57
2022/07/03 00:42:01;;;;;;;;;2.00;1.00;;;;;21.14;40.52;101651.31;5048993;28;45782;-57
2022/07/03 00:44:28;;;;;;;;;0.00;0.00;;;;;21.12;40.18;101647.06;5056455;28;45652;-57
2022/07/03 00:46:54;;;;;;;;;1.00;1.00;;;;;21.11;40.28;101650.72;5053367;28;45635;-57
2022/07/03 00:49:22;;;;;;;;;0.33;0.33;;;;;21.12;41.17;101657.88;5054745;28;46202;-57
2022/07/03 00:51:51;;;;;;;;;1.00;1.00;;;;;21.13;41.09;101659.56;5052265;28;45474;-57
2022/07/03 00:54:20;;;;;;;;;1.00;1.00;;;;;21.10;40.92;101655.25;5055510;28;45493;-57
2022/07/03 00:56:50;;;;;;;;;3.00;1.67;;;;;21.04;41.17;101653.09;5053570;28;45521;-57
2022/07/03 00:59:16;;;;;;;;;1.00;1.00;;;;;20.99;40.99;101647.19;5055660;28;45441;-57
2022/07/03 01:01:44;;;;;;;;;1.00;1.00;;;;;20.96;41.60;101650.13;5051008;27;71168;-57
2022/07/03 01:04:25;;;;;;;;;1.00;1.00;;;;;20.95;41.37;101648.38;5057571;28;45497;-58
2022/07/03 01:07:03;;;;;;;;;1.67;1.67;;;;;20.93;41.16;101645.81;5054967;28;45454;-57
2022/07/03 01:09:48;;;;;;;;;0.33;0.33;;;;;20.91;41.25;101649.63;5054912;28;45424;-57
2022/07/03 01:12:23;;;;;;;;;2.00;1.00;;;;;20.89;41.20;101649.75;5058230;28;45369;-57
2022/07/03 01:15:34;;;;;;;;;1.00;1.00;;;;;20.86;41.62;101651.84;5056962;28;45621;-57
2022/07/03 01:18:09;;;;;;;;;0.33;0.00;;;;;20.82;41.38;101656.66;5043991;28;45364;-57
2022/07/03 01:20:38;;;;;;;;;0.33;0.33;;;;;20.77;41.69;101657.00;5053200;28;45422;-57
2022/07/03 01:23:15;;;;;;;;;2.33;1.00;;;;;20.74;41.85;101646.47;5069584;28;67534;-57
2022/07/03 01:25:46;;;;;;;;;1.33;1.33;;;;;20.71;42.11;101657.50;5055977;28;45324;-57
2022/07/03 01:28:13;;;;;;;;;1.00;1.00;;;;;20.69;41.82;101661.28;5052968;28;45485;-57
2022/07/03 01:30:41;;;;;;;;;0.00;0.00;;;;;20.64;42.05;101662.50;5052463;28;46242;-57
2022/07/03 01:33:09;;;;;;;;;1.00;1.00;;;;;20.61;41.85;101657.34;5052720;28;45909;-56
2022/07/03 01:35:40;;;;;;;;;1.00;1.00;;;;;20.59;42.44;101656.59;5055741;28;46660;-56
2022/07/03 01:38:10;;;;;;;;;3.00;1.00;;;;;20.56;42.38;101650.56;5039124;28;45528;-57
2022/07/03 01:40:39;;;;;;;;;2.00;2.00;;;;;20.55;42.41;101656.97;5047537;28;47403;-57
2022/07/03 01:43:07;;;;;;;;;1.67;1.67;;;;;20.51;42.07;101659.06;5058526;28;45425;-56
2022/07/03 01:45:37;;;;;;;;;0.33;0.33;;;;;20.48;42.60;101653.88;5055439;28;45572;-57
2022/07/03 01:48:05;;;;;;;;;0.67;0.67;;;;;20.47;42.78;101652.19;5054901;28;45556;-57
2022/07/03 01:50:31;;;;;;;;;2.00;2.00;;;;;20.45;42.12;101652.28;5054354;27;45500;-56
2022/07/03 01:53:01;;;;;;;;;4.67;3.00;;;;;20.41;42.42;101656.19;5046713;28;45399;-56
2022/07/03 01:55:30;;;;;;;;;5.00;3.00;;;;;20.37;42.95;101652.03;5054640;28;45449;-56
2022/07/03 01:57:55;;;;;;;;;4.33;3.33;;;;;20.33;43.09;101654.09;5060548;27;45631;-56
2022/07/03 02:00:22;;;;;;;;;3.33;3.33;;;;;20.28;43.17;101656.31;5047484;28;69975;-56
2022/07/03 02:02:56;;;;;;;;;5.33;5.33;;;;;20.27;42.90;101641.09;5053788;28;45598;-56
2022/07/03 02:05:38;;;;;;;;;3.00;3.00;;;;;20.27;43.05;101651.03;5041285;28;45347;-56
2022/07/03 02:08:37;;;;;;;;;4.67;4.00;;;;;20.21;43.33;101655.06;5057235;28;45361;-56
2022/07/03 02:11:13;;;;;;;;;2.67;2.00;;;;;20.15;42.98;101653.72;5046913;28;46124;-56
2022/07/03 02:14:17;;;;;;;;;2.67;2.67;;;;;20.11;43.44;101656.75;5057079;28;45378;-56
2022/07/03 02:17:18;;;;;;;;;2.00;1.67;;;;;20.01;43.84;101651.19;5062002;28;45691;-56
2022/07/03 02:19:52;;;;;;;;;1.00;1.00;;;;;19.95;43.51;101655.22;5057156;28;45463;-56
2022/07/03 02:22:27;;;;;;;;;2.00;2.00;;;;;19.90;43.96;101652.03;5060574;28;45718;-56
2022/07/03 02:24:52;;;;;;;;;1.00;1.00;;;;;19.85;43.76;101654.22;5056168;28;45438;-56
2022/07/03 02:27:23;;;;;;;;;2.00;2.00;;;;;19.82;44.27;101646.34;5052558;28;46018;-56
2022/07/03 02:29:58;;;;;;;;;1.00;1.00;;;;;19.81;43.97;101650.00;5055359;28;45504;-56
2022/07/03 02:32:25;;;;;;;;;1.33;1.33;;;;;19.81;44.57;101652.69;5052367;28;46239;-56
2022/07/03 02:35:04;;;;;;;;;4.00;1.33;;;;;19.78;44.40;101658.34;5055425;28;71740;-56
2022/07/03 02:37:33;;;;;;;;;2.33;2.33;;;;;19.77;44.24;101656.59;5056932;28;45347;-56
2022/07/03 02:40:14;;;;;;;;;1.00;1.00;;;;;19.74;44.57;101662.25;5056000;28;45270;-57
2022/07/03 02:43:23;;;;;;;;;7.00;3.00;;;;;19.71;44.80;101666.03;5046485;28;46329;-56
2022/07/03 02:45:51;;;;;;;;;2.00;2.00;;;;;19.67;44.61;101669.91;5050311;28;45449;-56
2022/07/03 02:48:27;;;;;;;;;4.00;2.67;;;;;19.63;45.13;101668.44;5057288;28;45345;-56
2022/07/03 02:50:58;;;;;;;;;3.00;2.00;;;;;19.59;45.32;101667.78;5057656;28;45444;-56
2022/07/03 02:53:33;;;;;;;;;2.67;2.67;;;;;19.57;45.20;101677.84;5053310;28;45292;-56
2022/07/03 02:56:05;;;;;;;;;5.00;2.00;;;;;19.53;45.14;101670.97;5058647;28;45384;-56
2022/07/03 02:58:34;;;;;;;;;1.00;1.00;;;;;19.53;45.13;101679.06;5058974;28;45367;-56
2022/07/03 03:01:09;;;;;;;;;2.00;2.00;;;;;19.49;45.36;101673.03;5058310;28;45180;-56
2022/07/03 03:03:35;;;;;;;;;2.33;2.00;;;;;19.46;45.30;101680.47;5057601;28;45893;-56
2022/07/03 03:06:08;;;;;;;;;2.67;2.67;;;;;19.43;45.46;101680.72;5057825;28;45739;-56
2022/07/03 03:08:49;;;;;;;;;2.00;2.00;;;;;19.39;45.14;101677.38;5059783;28;45309;-56
2022/07/03 03:11:29;;;;;;;;;2.00;1.33;;;;;19.36;45.49;101682.13;5053613;28;45416;-56
2022/07/03 03:13:59;;;;;;;;;3.00;2.00;;;;;19.33;45.49;101678.69;5079793;27;46427;-56
2022/07/03 03:16:26;;;;;;;;;2.00;2.00;;;;;19.34;45.79;101677.69;5060277;28;45397;-56
2022/07/03 03:18:51;;;;;;;;;1.00;1.00;;;;;19.29;45.37;101682.56;5057672;28;45490;-56
2022/07/03 03:21:18;;;;;;;;;3.00;1.33;;;;;19.21;45.66;101676.03;5057105;28;63208;-56
2022/07/03 03:23:51;;;;;;;;;2.00;2.00;;;;;19.19;45.68;101670.75;5052627;28;45563;-56
2022/07/03 03:26:22;;;;;;;;;4.33;2.67;;;;;19.17;46.12;101673.53;5058148;28;45439;-56
2022/07/03 03:28:48;;;;;;;;;1.00;1.00;;;;;19.17;46.05;101670.00;5060636;27;45424;-56
2022/07/03 03:31:14;;;;;;;;;4.00;2.00;;;;;19.14;46.00;101663.00;5054279;28;45806;-56
2022/07/03 03:33:44;;;;;;;;;1.67;1.67;;;;;19.10;46.12;101674.09;5054874;28;46188;-56
2022/07/03 03:36:12;;;;;;;;;2.00;1.00;;;;;19.09;45.84;101667.00;5052990;27;45283;-56
2022/07/03 03:38:39;;;;;;;;;3.00;1.33;;;;;19.08;45.82;101676.06;5059482;28;45480;-55
2022/07/03 03:41:05;;;;;;;;;1.33;1.33;;;;;19.08;46.06;101676.91;5051513;28;45481;-56
2022/07/03 03:43:31;;;;;;;;;3.33;1.33;;;;;19.08;45.97;101673.38;5058912;28;45916;-56
2022/07/03 03:45:58;;;;;;;;;1.00;1.00;;;;;19.08;45.59;101670.66;5056544;28;45461;-55
2022/07/03 03:48:24;;;;;;;;;1.67;1.67;;;;;19.06;45.94;101673.47;5058672;28;45481;-56
2022/07/03 03:50:49;;;;;;;;;0.67;0.00;;;;;19.03;46.14;101679.06;5059194;28;45328;-56
2022/07/03 03:53:15;;;;;;;;;1.00;1.00;;;;;19.01;45.88;101671.09;5058194;28;64067;-56
2022/07/03 03:56:03;;;;;;;;;1.00;1.00;;;;;18.99;46.02;101674.88;5055437;28;45397;-56
2022/07/03 03:58:30;;;;;;;;;2.00;1.00;;;;;18.96;45.90;101678.66;5059351;28;45309;-55
2022/07/03 04:00:57;;;;;;;;;1.00;1.00;;;;;18.95;45.88;101681.47;5048939;28;45451;-56
2022/07/03 04:03:23;;;;;;;;;2.00;2.00;;;;;18.94;46.01;101682.44;5052345;28;46570;-57
2022/07/03 04:05:48;;;;;;;;;1.00;1.00;;;;;18.90;46.18;101675.56;5053433;28;45535;-56
2022/07/03 04:08:13;;;;;;;;;2.67;1.00;;;;;18.87;46.28;101687.38;5056976;28;64913;-56
2022/07/03 04:10:39;;;;;;;;;3.00;1.67;;;;;18.85;46.27;101683.91;5051883;28;59682;-57
2022/07/03 04:13:04;;;;;;;;;2.00;2.00;;;;;18.83;46.13;101681.34;5056401;28;72250;-56
2022/07/03 04:15:29;;;;;;;;;1.67;1.67;;;;;18.80;46.41;101686.09;5052249;28;45382;-56
2022/07/03 04:17:55;;;;;;;;;1.00;1.00;;;;;18.74;46.38;101687.38;5056231;28;45562;-56
2022/07/03 04:20:20;;;;;;;;;4.00;1.00;;;;;18.73;46.47;101693.72;5053864;28;66726;-56
2022/07/03 04:22:48;;;;;;;;;1.00;1.00;;;;;18.74;46.52;101695.47;5053774;28;46241;-56
2022/07/03 04:25:13;;;;;;;;;2.00;2.00;;;;;18.71;46.55;101686.72;5057438;28;45449;-56
2022/07/03 04:27:38;;;;;;;;;1.00;1.00;;;;;18.71;46.72;101692.13;5061221;28;45410;-56
2022/07/03 04:30:09;;;;;;;;;3.00;1.00;;;;;18.72;46.50;101693.84;5054757;28;65040;-56
2022/07/03 04:32:35;;;;;;;;;2.00;2.00;;;;;18.73;46.75;101691.03;5051402;28;46054;-56
2022/07/03 04:35:00;;;;;;;;;1.33;1.33;;;;;18.73;46.68;101696.44;5059952;28;45457;-56
2022/07/03 04:37:25;;;;;;;;;1.00;1.00;;;;;18.73;46.70;101706.34;5056834;28;67844;-56
2022/07/03 04:39:50;;;;;;;;;1.00;1.00;;;;;18.75;46.63;101702.59;5058166;27;45596;-55
2022/07/03 04:42:16;;;;;;;;;2.00;2.00;;;;;18.74;46.77;101697.31;5051405;28;67914;-56
2022/07/03 04:44:41;;;;;;;;;3.00;1.00;;;;;18.73;47.31;101698.28;5054696;28;66975;-56
2022/07/03 04:47:06;;;;;;;;;2.00;2.00;;;;;18.75;46.98;101699.88;5055512;28;66548;-56
2022/07/03 04:49:32;;;;;;;;;1.00;1.00;;;;;18.76;46.86;101703.44;5049422;28;57449;-56
2022/07/03 04:51:57;;;;;;;;;2.00;2.00;;;;;18.77;47.05;101707.88;5059823;28;75567;-56
2022/07/03 04:54:23;;;;;;;;;1.67;1.00;;;;;18.78;46.99;101705.06;5058362;28;45425;-56
2022/07/03 04:56:48;;;;;;;;;1.00;1.00;;;;;18.79;47.31;101703.25;5056070;28;45819;-56
2022/07/03 04:59:13;;;;;;;;;1.00;1.00;;;;;18.82;47.01;101703.00;5048948;28;65910;-56
2022/07/03 05:01:38;;;;;;;;;3.00;3.00;;;;;18.83;47.01;101708.28;5055414;28;45926;-56
2022/07/03 05:04:05;;;;;;;;;1.67;1.67;;;;;18.84;47.25;101701.94;5057658;28;70351;-56
2022/07/03 05:06:30;;;;;;;;;0.33;0.33;;;;;18.87;47.20;101700.00;5053488;28;65395;-56
2022/07/03 05:08:55;;;;;;;;;1.00;1.00;;;;;18.87;47.08;101703.56;5059618;27;56790;-56
2022/07/03 05:11:21;;;;;;;;;2.00;1.33;;;;;18.87;46.97;101714.31;5056180;28;70099;-56
2022/07/03 05:13:46;;;;;;;;;1.00;1.00;;;;;18.88;47.15;101701.69;5054954;28;45381;-55
2022/07/03 05:16:12;;;;;;;;;1.00;1.00;;;;;18.89;47.04;101711.53;5052232;28;63152;-55
2022/07/03 05:18:37;;;;;;;;;0.00;0.00;;;;;18.89;46.91;101712.44;5053470;28;45914;-56
2022/07/03 05:21:03;;;;;;;;;1.00;1.00;;;;;18.89;47.10;101711.53;5055992;28;71314;-56
2022/07/03 05:23:28;;;;;;;;;1.00;0.67;;;;;18.89;46.73;101712.44;5045770;28;45375;-56
2022/07/03 05:25:55;;;;;;;;;1.00;1.00;;;;;18.89;47.10;101708.81;5054751;28;45544;-55
2022/07/03 05:28:20;;;;;;;;;1.00;1.00;;;;;18.90;47.41;101702.50;5057574;27;45522;-55
2022/07/03 05:30:46;;;;;;;;;2.00;0.67;;;;;18.90;47.34;101707.88;5048020;28;46487;-56
2022/07/03 05:33:11;;;;;;;;;3.33;1.00;;;;;18.93;46.99;101710.34;5055752;28;45727;-56
2022/07/03 05:35:36;;;;;;;;;0.67;0.33;;;;;18.96;47.34;101705.63;5055320;28;64349;-56
2022/07/03 05:38:02;;;;;;;;;1.00;1.00;;;;;19.01;46.96;101713.38;5058518;28;69326;-56
2022/07/03 05:40:27;;;;;;;;;1.00;1.00;;;;;19.04;46.82;101715.84;5056451;28;50079;-55
2022/07/03 05:42:53;;;;;;;;;2.67;1.00;;;;;19.05;46.97;101714.88;5057018;28;45414;-56
2022/07/03 05:45:19;;;;;;;;;1.33;1.00;;;;;19.06;46.99;101713.94;5058211;28;45504;-55
2022/07/03 05:47:44;;;;;;;;;2.00;1.00;;;;;19.09;46.97;101713.69;5057535;28;45621;-55
2022/07/03 05:50:10;;;;;;;;;1.67;1.67;;;;;19.15;46.97;101720.47;5057587;28;45418;-56
2022/07/03 05:52:35;;;;;;;;;1.00;1.00;;;;;19.18;46.96;101720.25;5068751;28;45410;-57
2022/07/03 05:55:01;;;;;;;;;1.00;1.00;;;;;19.21;46.74;101717.34;5056378;28;45557;-56
2022/07/03 05:57:26;;;;;;;;;2.00;2.00;;;;;19.24;47.09;101718.94;5056859;28;63772;-56
2022/07/03 05:59:51;;;;;;;;;0.00;0.00;;;;;19.23;46.85;101718.09;5049135;28;72301;-56
2022/07/03 06:02:17;;;;;;;;;4.00;2.00;;;;;19.26;47.00;101723.25;5041391;28;45400;-57
2022/07/03 06:04:42;;;;;;;;;2.00;0.33;;;;;19.28;47.05;101725.84;5044325;28;45528;-57
2022/07/03 06:07:08;;;;;;;;;2.67;1.00;;;;;19.32;47.27;101724.63;5066525;28;45304;-56
2022/07/03 06:09:33;;;;;;;;;1.00;1.00;;;;;19.33;47.37;101723.66;5048523;28;45373;-57
2022/07/03 06:11:59;;;;;;;;;1.00;1.00;;;;;19.37;47.24;101725.16;5052089;28;59882;-56
2022/07/03 06:14:24;;;;;;;;;1.33;0.00;;;;;19.39;47.28;101725.09;5056823;28;62048;-56
2022/07/03 06:16:49;;;;;;;;;1.67;1.00;;;;;19.40;47.82;101726.78;5057568;28;52812;-57
2022/07/03 06:19:15;;;;;;;;;3.00;1.00;;;;;19.44;47.45;101725.59;5048398;28;46055;-57
2022/07/03 06:21:41;;;;;;;;;1.00;1.00;;;;;19.46;47.82;101724.53;5047204;28;45722;-55
2022/07/03 06:24:07;;;;;;;;;3.00;2.00;;;;;19.51;47.65;101724.16;5042555;28;45459;-56
2022/07/03 06:26:32;;;;;;;;;2.00;2.00;;;;;19.53;47.61;101722.22;5055054;28;66884;-56
2022/07/03 06:28:57;;;;;;;;;0.33;0.33;;;;;19.56;47.94;101729.25;5050327;28;67257;-56
2022/07/03 06:31:23;;;;;;;;;2.00;0.00;;;;;19.62;48.30;101732.34;5062155;28;54381;-56
2022/07/03 06:33:48;;;;;;;;;1.67;1.00;;;;;19.71;48.21;101724.53;5056928;28;45568;-56
2022/07/03 06:36:13;;;;;;;;;2.00;2.00;;;;;19.79;47.63;101728.38;5052887;28;66526;-56
2022/07/03 06:38:39;;;;;;;;;1.67;1.67;;;;;19.89;48.20;101725.88;5059996;28;74259;-56
2022/07/03 06:41:04;;;;;;;;;1.33;1.00;;;;;19.97;47.92;101728.00;5058053;28;68510;-57
2022/07/03 06:43:29;;;;;;;;;1.67;0.33;;;;;20.06;47.93;101731.84;5064598;28;60535;-56
2022/07/03 06:45:55;;;;;;;;;4.33;2.33;;;;;20.17;47.99;101726.50;5059947;28;67157;-56
2022/07/03 06:48:20;;;;;;;;;4.00;1.00;;;;;20.38;47.49;101728.53;5058630;28;66893;-56
2022/07/03 06:50:46;;;;;;;;;2.00;2.00;;;;;20.62;47.26;101734.75;5056275;28;45810;-55
2022/07/03 06:53:11;;;;;;;;;1.00;1.00;;;;;20.90;47.50;101735.31;5060453;28;45410;-57
2022/07/03 06:55:37;;;;;;;;;2.00;2.00;;;;;21.20;46.89;101736.53;5050075;28;67057;-54
2022/07/03 06:58:02;;;;;;;;;1.67;1.67;;;;;21.52;46.64;101737.59;5058236;28;45976;-57
2022/07/03 07:00:27;;;;;;;;;0.67;0.67;;;;;21.77;46.43;101736.47;5059332;28;63285;-57
2022/07/03 07:02:53;;;;;;;;;1.00;1.00;;;;;22.03;45.96;101736.13;5058928;28;69456;-57
2022/07/03 07:05:18;;;;;;;;;1.00;0.67;;;;;22.23;45.07;101739.88;5059633;28;63092;-57
2022/07/03 07:07:44;;;;;;;;;1.33;1.33;;;;;22.41;44.33;101743.75;5067538;28;45903;-57
2022/07/03 07:10:09;;;;;;;;;1.00;1.00;;;;;22.62;44.46;101741.03;5056583;28;45399;-57
2022/07/03 07:12:35;;;;;;;;;1.33;1.33;;;;;22.88;44.18;101746.03;5059364;28;61798;-60
2022/07/03 07:15:00;;;;;;;;;3.00;1.00;;;;;23.16;43.65;101742.78;5060710;28;45423;-60
2022/07/03 07:17:25;;;;;;;;;0.67;0.67;;;;;23.42;43.29;101740.44;5058815;28;46783;-56
2022/07/03 07:19:51;;;;;;;;;1.00;1.00;;;;;23.69;42.54;101747.06;5059934;28;52967;-61
2022/07/03 07:22:16;;;;;;;;;0.67;0.67;;;;;23.92;41.93;101744.97;5057804;28;64377;-59
2022/07/03 07:24:42;;;;;;;;;1.67;1.67;;;;;24.10;41.71;101751.41;5061079;28;45409;-59
2022/07/03 07:27:07;;;;;;;;;1.67;0.00;;;;;24.27;41.94;101758.03;5060432;27;47155;-60
2022/07/03 07:29:32;;;;;;;;;1.00;1.00;;;;;24.42;40.61;101750.28;5058392;28;64946;-59
2022/07/03 07:31:58;;;;;;;;;1.67;1.67;;;;;24.63;40.88;101761.97;5059640;28;45418;-59
2022/07/03 07:34:23;;;;;;;;;1.00;1.00;;;;;24.81;40.20;101754.81;5058757;28;59408;-60
2022/07/03 07:36:48;;;;;;;;;1.67;1.67;;;;;24.99;40.06;101745.88;5061572;28;58989;-53
2022/07/03 07:39:13;;;;;;;;;1.50;1.50;;;;;25.21;40.75;101752.81;5058609;28;71203;-55
2022/07/03 07:41:39;;;;;;;;;3.33;2.00;;;;;25.39;39.35;101753.75;5056468;28;57174;-55
2022/07/03 07:44:04;;;;;;;;;0.50;0.50;;;;;25.60;39.21;101758.06;5058911;28;68281;-55
2022/07/03 07:46:30;;;;;;;;;0.00;0.00;;;;;25.79;38.11;101764.41;5059554;28;45838;-55
2022/07/03 07:48:56;;;;;;;;;1.00;1.00;;;;;26.05;39.00;101759.94;5061563;28;45564;-54
2022/07/03 07:51:21;;;;;;;;;0.75;0.25;;;;;26.21;38.18;101751.06;5058448;28;52531;-53
2022/07/03 07:53:47;;;;;;;;;1.25;1.25;;;;;26.38;37.70;101754.78;5060113;28;45540;-54
2022/07/03 07:56:12;;;;;;;;;1.00;1.00;;;;;26.52;37.12;101742.44;5046915;28;46234;-54
2022/07/03 07:58:37;;;;;;;;;0.00;0.00;;;;;26.72;36.75;101753.19;5061273;28;72308;-55
2022/07/03 08:06:31;;;;;;;;;1.00;1.00;;;;;27.46;35.68;101750.84;5058855;28;46043;-56
2022/07/03 08:08:56;;;;;;;;;1.25;0.00;;;;;29.83;35.32;101751.78;5052176;28;70781;-46
2022/07/03 08:11:22;;;;;;;;;0.50;0.50;;;;;33.62;32.48;101751.91;5058168;28;46503;-46
2022/07/03 08:13:47;;;;;;;;;1.25;1.25;;;;;36.84;28.67;101753.56;5059774;28;69315;-47
2022/07/03 08:16:13;;;;;;;;;2.00;2.00;;;;;39.32;26.03;101754.38;5061063;27;71739;-47
2022/07/03 08:18:38;;;;;;;;;1.75;1.75;;;;;41.23;24.19;101758.38;5058396;28;45389;-47
2022/07/03 08:21:04;;;;;;;;;1.50;1.50;;;;;42.78;22.41;101757.00;5056887;28;45448;-49
2022/07/03 08:23:29;;;;;;;;;3.00;1.75;;;;;42.35;20.90;101756.16;5058871;27;46065;-48
2022/07/03 08:25:55;;;;;;;;;2.00;1.25;;;;;43.19;20.16;101756.38;5041714;28;47165;-49
2022/07/03 08:28:20;;;;;;;;;2.00;1.00;;;;;44.45;18.99;101757.94;5054636;28;45496;-51
2022/07/03 08:30:45;;;;;;;;;5.50;2.50;;;;;45.26;19.02;101757.94;5052917;28;63048;-47
2022/07/03 08:33:11;;;;;;;;;0.50;0.50;;;;;46.29;17.88;101762.00;5054994;28;45628;-46
2022/07/03 08:35:36;;;;;;;;;0.00;0.00;;;;;47.27;16.47;101764.50;5059288;27;68616;-51
2022/07/03 08:38:01;;;;;;;;;0.75;0.75;;;;;47.94;15.36;101765.47;5047718;28;65730;-52
2022/07/03 08:40:27;;;;;;;;;0.00;0.00;;;;;47.22;15.19;101773.00;5059556;28;64235;-49
2022/07/03 08:42:58;;;;;;;;;0.50;0.50;;;;;47.66;15.19;101765.34;5040314;28;52365;-47
2022/07/03 08:45:24;;;;;;;;;1.00;1.00;;;;;48.42;14.96;101758.69;5044700;28;46469;-47
2022/07/03 08:47:52;;;;;;;;;0.50;0.50;;;;;48.90;13.88;101752.66;5058347;28;45800;-50
2022/07/03 08:50:19;;;;;;;;;1.75;0.75;;;;;49.10;13.68;101757.03;5058242;28;45489;-47
2022/07/03 08:52:45;;;;;;;;;1.00;1.00;;;;;49.39;13.05;101746.50;5059678;28;45401;-51
2022/07/03 08:55:13;;;;;;;;;1.00;1.00;;;;;49.27;13.10;101759.22;5068668;28;46029;-47
2022/07/03 08:57:40;;;;;;;;;0.00;0.00;;;;;49.65;13.44;101758.03;5058729;28;45351;-50
2022/07/03 09:00:08;;;;;;;;;1.00;1.00;;;;;50.14;12.35;101759.03;5058679;28;45275;-50
2022/07/03 09:02:34;;;;;;;;;1.00;1.00;;;;;50.21;12.11;101755.78;5058273;28;45687;-49
2022/07/03 09:05:01;;;;;;;;;0.00;0.00;;;;;50.45;12.05;101760.22;5058134;28;47126;-48
2022/07/03 09:07:28;;;;;;;;;1.00;1.00;;;;;50.63;12.59;101758.28;5058274;28;45354;-50
2022/07/03 09:09:54;;;;;;;;;2.00;2.00;;;;;50.85;12.19;101757.38;5057435;28;45550;-50
2022/07/03 09:12:20;;;;;;;;;1.75;1.75;;;;;50.09;11.46;101758.34;5057552;28;62186;-47
2022/07/03 09:14:45;;;;;;;;;1.25;1.00;;;;;47.75;12.75;101766.31;5057161;28;46164;-47
2022/07/03 09:17:11;;;;;;;;;3.50;3.00;;;;;48.12;13.00;101758.09;5057815;28;45364;-50
2022/07/03 09:19:44;;;;;;;;;2.75;2.50;;;;;49.19;12.87;101754.28;5056723;28;45264;-50
2022/07/03 09:22:30;;;;;;;;;1.75;1.75;;;;;50.31;11.47;101765.94;5056445;28;45160;-46
2022/07/03 09:25:05;;;;;;;;;1.75;1.25;;;;;50.40;12.01;101747.06;5048590;28;48157;-51
2022/07/03 09:27:30;;;;;;;;;2.00;2.00;;;;;47.85;11.81;101754.91;5055606;28;45366;-48
2022/07/03 09:30:00;;;;;;;;;2.75;2.75;;;;;44.63;13.47;101753.69;5058155;28;61966;-48
2022/07/03 09:32:36;;;;;;;;;2.75;2.75;;;;;44.01;14.39;101758.50;5055842;28;45639;-48
2022/07/03 09:35:18;;;;;;;;;2.50;2.50;;;;;44.22;14.68;101754.56;5051601;28;46341;-49
2022/07/03 09:37:53;;;;;;;;;2.00;2.00;;;;;43.74;15.46;101752.03;5058449;28;45543;-47
2022/07/03 09:40:19;;;;;;;;;3.50;3.50;;;;;44.35;14.34;101755.13;5070541;28;45546;-48
2022/07/03 09:43:28;;;;;;;;;2.75;2.75;;;;;43.89;14.42;101753.16;5058298;28;45453;-48
2022/07/03 09:45:58;;;;;;;;;5.00;5.00;;;;;42.52;15.38;101750.38;5055353;28;46944;-48
2022/07/03 09:48:34;;;;;;;;;2.50;2.00;;;;;42.27;15.88;101752.75;5053757;28;45552;-48
2022/07/03 09:51:23;;;;;;;;;3.00;3.00;;;;;43.97;14.92;101749.00;5057767;28;45352;-47
2022/07/03 09:53:57;;;;;;;;;2.33;2.33;;;;;42.07;15.31;101749.78;5051726;28;46288;-48
2022/07/03 09:56:33;;;;;;;;;5.00;5.00;;;;;39.70;17.09;101752.94;5054034;28;46363;-48
2022/07/03 09:58:59;;;;;;;;;2.25;2.25;;;;;38.31;18.02;101764.63;5056501;28;45342;-51
2022/07/03 10:01:25;;;;;;;;;2.67;2.00;;;;;38.36;18.35;101761.13;5058134;28;45293;-48
2022/07/03 10:03:51;;;;;;;;;10.67;10.67;;;;;39.72;17.99;101750.75;5058823;28;45467;-48
2022/07/03 10:06:16;;;;;;;;;9.00;9.00;;;;;39.78;17.46;101758.09;5058761;28;73124;-47
2022/07/03 10:08:43;;;;;;;;;6.00;4.00;;;;;38.62;18.14;101759.81;5056418;28;67947;-50
2022/07/03 10:11:08;;;;;;;;;6.67;6.67;;;;;37.61;18.55;101752.19;5056204;28;45477;-47
2022/07/03 10:13:38;;;;;;;;;6.00;4.25;;;;;36.09;19.68;101758.03;5059478;28;45780;-47
2022/07/03 10:16:03;;;;;;;;;3.00;3.00;;;;;36.44;20.10;101753.97;5059833;28;47070;-47
2022/07/03 10:18:30;;;;;;;;;2.00;2.00;;;;;37.28;19.60;101763.72;5077165;27;45347;-48
2022/07/03 10:20:59;;;;;;;;;3.00;3.00;;;;;39.11;18.88;101764.22;5059771;28;45365;-51
2022/07/03 10:23:25;;;;;;;;;3.50;3.25;;;;;42.30;17.22;101751.38;5058781;28;45518;-48
2022/07/03 10:25:50;;;;;;;;;4.25;2.75;;;;;44.39;15.03;101750.66;5058275;28;47028;-49
2022/07/03 10:28:18;;;;;;;;;3.00;3.00;;;;;42.64;15.49;101760.25;5058519;28;70099;-50
2022/07/03 10:30:44;;;;;;;;;2.67;2.67;;;;;41.17;16.09;101759.41;5062004;27;45621;-50
2022/07/03 10:33:10;;;;;;;;;2.33;2.33;;;;;39.89;16.85;101753.53;5059665;28;45454;-48
2022/07/03 10:35:42;;;;;;;;;7.00;6.67;;;;;41.09;17.03;101760.72;5059898;28;60102;-50
2022/07/03 10:38:19;;;;;;;;;2.00;1.25;;;;;43.16;15.94;101746.56;5059564;28;45472;-50
2022/07/03 10:46:51;;;;;;;;;2.50;2.50;;;;;48.12;12.77;101755.28;5061108;28;45403;-49
2022/07/03 10:49:17;;;;;;;;;1.25;1.25;;;;;50.15;12.49;101755.06;5062119;28;64821;-48
2022/07/03 10:51:45;;;;;;;;;2.00;2.00;;;;;51.71;10.63;101757.78;5059467;28;45334;-47
2022/07/03 10:54:17;;;;;;;;;2.50;2.50;;;;;53.22;9.95;101760.50;5059615;28;45456;-50
2022/07/03 10:56:58;;;;;;;;;1.00;1.00;;;;;52.90;10.29;101764.88;5051457;28;45463;-49
2022/07/03 10:59:36;;;;;;;;;2.00;1.00;;;;;53.73;9.58;101770.88;5060839;28;45403;-51
2022/07/03 11:02:21;;;;;;;;;1.00;1.00;;;;;54.87;8.94;101766.69;5060524;28;45298;-48
2022/07/03 11:05:20;;;;;;;;;1.00;1.00;;;;;54.19;8.31;101757.53;5058129;28;45462;-49
2022/07/03 11:07:52;;;;;;;;;1.00;1.00;;;;;53.70;8.64;101761.06;5046992;28;47144;-49
2022/07/03 11:10:17;;;;;;;;;1.50;0.25;;;;;53.74;8.44;101762.00;5052854;28;45346;-46
2022/07/03 11:13:07;;;;;;;;;0.25;0.25;;;;;53.54;8.02;101760.06;5054935;28;45267;-47
2022/07/03 11:15:40;;;;;;;;;1.75;0.25;;;;;53.96;8.30;101759.97;5059152;28;45541;-47
2022/07/03 11:18:08;;;;;;;;;2.50;1.00;;;;;51.09;9.20;101756.09;5060444;28;46076;-50
2022/07/03 11:20:54;;;;;;;;;0.00;0.00;;;;;49.70;10.48;101751.44;5050227;28;45622;-47
2022/07/03 11:23:27;;;;;;;;;1.00;1.00;;;;;46.23;10.64;101759.22;5051672;28;45403;-48
2022/07/03 11:25:59;;;;;;;;;0.00;0.00;;;;;46.37;11.41;101766.97;5058672;28;45584;-50
2022/07/03 11:28:31;;;;;;;;;1.00;1.00;;;;;44.40;12.45;101769.16;5057317;28;45538;-49
2022/07/03 11:33:48;;;;;;;;;0.00;0.00;;;;;42.75;13.93;101760.34;5058894;28;45743;-51
2022/07/03 11:36:16;;;;;;;;;0.00;0.00;;;;;44.86;12.73;101757.81;5056920;28;45517;-51
2022/07/03 11:38:43;;;;;;;;;1.00;1.00;;;;;43.42;13.25;101752.25;5055481;28;45452;-50
2022/07/03 11:41:10;;;;;;;;;1.25;1.25;;;;;41.06;14.55;101757.63;5059121;28;45725;-54
2022/07/03 11:43:36;;;;;;;;;2.50;2.00;;;;;38.98;15.40;101762.56;5058981;28;45369;-54
2022/07/03 11:46:03;;;;;;;;;1.75;1.75;;;;;37.37;16.82;101749.34;5058442;28;45921;-55
2022/07/03 11:48:29;;;;;;;;;1.00;1.00;;;;;36.34;18.18;101753.59;5054181;28;46209;-54